createdAt,value
2019-01-14T00:01:09.528Z,79.86
2019-01-14T00:03:40.345Z,79.80
2019-01-14T00:06:11.146Z,79.23
2019-01-14T00:08:43.899Z,78.76
2019-01-14T00:11:16.738Z,78.46
2019-01-14T00:13:50.664Z,79.07
2019-01-14T00:16:24.471Z,79.38
2019-01-14T00:18:55.283Z,80.10
2019-01-14T00:21:26.134Z,80.45
2019-01-14T00:23:56.941Z,81.29
2019-01-14T00:26:27.792Z,81.80
2019-01-14T00:28:58.732Z,82.66
2019-01-14T00:31:29.754Z,83.14
2019-01-14T00:34:00.898Z,83.80
2019-01-14T00:36:31.824Z,83.99
2019-01-14T00:39:02.919Z,84.21
2019-01-14T00:41:33.762Z,84.17
2019-01-14T00:44:04.726Z,83.61
2019-01-14T00:46:35.664Z,82.28
2019-01-14T00:49:06.862Z,80.68
2019-01-14T00:51:37.805Z,80.02
2019-01-14T00:54:10.686Z,83.23
2019-01-14T00:56:41.630Z,86.95
2019-01-14T00:59:12.551Z,89.81
2019-01-14T01:01:43.405Z,90.82
2019-01-14T01:04:14.238Z,92.10
2019-01-14T01:06:47.903Z,91.41
2019-01-14T01:09:18.762Z,91.42
2019-01-14T01:11:52.040Z,91.40
2019-01-14T01:14:26.086Z,90.44
2019-01-14T01:16:58.872Z,88.18
2019-01-14T01:19:29.669Z,86.70
2019-01-14T01:22:05.957Z,84.49
2019-01-14T01:24:39.329Z,83.39
2019-01-14T01:27:11.729Z,82.17
2019-01-14T01:29:42.642Z,81.61
2019-01-14T01:32:16.701Z,80.00
2019-01-14T01:34:47.671Z,78.75
2019-01-14T01:37:18.621Z,79.22
2019-01-14T01:39:49.525Z,80.19
2019-01-14T01:42:20.477Z,79.87
2019-01-14T01:44:51.329Z,78.90
2019-01-14T01:47:22.568Z,78.35
2019-01-14T01:49:56.373Z,77.73
2019-01-14T01:52:33.568Z,76.39
2019-01-14T01:55:04.842Z,74.31
2019-01-14T01:57:35.782Z,73.91
2019-01-14T02:00:14.429Z,73.06
2019-01-14T02:02:51.429Z,73.26
2019-01-14T02:05:22.914Z,72.45
2019-01-14T02:07:55.553Z,71.52
2019-01-14T02:10:27.561Z,70.94
2019-01-14T02:12:58.397Z,71.16
2019-01-14T02:15:30.899Z,70.48
2019-01-14T02:18:03.177Z,70.37
2019-01-14T02:20:34.152Z,70.47
2019-01-14T02:23:07.941Z,69.70
2019-01-14T02:25:38.857Z,68.87
2019-01-14T02:28:12.837Z,69.35
2019-01-14T02:30:43.759Z,69.57
2019-01-14T02:33:18.587Z,69.61
2019-01-14T02:35:49.526Z,69.74
2019-01-14T02:38:26.480Z,70.10
2019-01-14T02:40:57.406Z,70.33
2019-01-14T02:43:30.665Z,70.68
2019-01-14T02:46:01.488Z,70.13
2019-01-14T02:48:32.345Z,69.70
2019-01-14T02:51:03.251Z,69.92
2019-01-14T02:53:39.112Z,70.38
2019-01-14T02:56:09.680Z,70.71
2019-01-14T02:58:42.926Z,70.64
2019-01-14T03:01:13.808Z,71.02
2019-01-14T03:03:47.203Z,71.22
2019-01-14T03:06:20.260Z,71.08
2019-01-14T03:08:51.221Z,71.34
2019-01-14T03:11:22.064Z,71.62
2019-01-14T03:13:53.008Z,71.12
2019-01-14T03:16:23.805Z,70.55
2019-01-14T03:18:54.967Z,70.19
2019-01-14T03:21:27.133Z,70.57
2019-01-14T03:23:57.978Z,69.91
2019-01-14T03:26:28.848Z,69.57
2019-01-14T03:28:59.774Z,69.21
2019-01-14T03:31:30.614Z,69.13
2019-01-14T03:34:01.390Z,68.68
2019-01-14T03:36:35.180Z,68.83
2019-01-14T03:39:08.450Z,69.19
2019-01-14T03:41:39.299Z,68.79
2019-01-14T03:44:10.181Z,68.72
2019-01-14T03:46:46.113Z,68.54
2019-01-14T03:49:18.076Z,68.48
2019-01-14T03:51:48.940Z,68.79
2019-01-14T03:54:19.856Z,68.73
2019-01-14T03:56:50.772Z,68.39
2019-01-14T03:59:21.762Z,68.68
2019-01-14T04:01:52.606Z,69.70
2019-01-14T04:04:23.540Z,69.72
2019-01-14T04:06:54.356Z,69.45
2019-01-14T04:09:27.891Z,69.29
2019-01-14T04:12:00.196Z,68.89
2019-01-14T04:14:32.587Z,69.59
2019-01-14T04:17:03.468Z,68.31
2019-01-14T04:19:37.274Z,68.49
2019-01-14T04:22:08.460Z,67.58
2019-01-14T04:24:39.220Z,67.78
2019-01-14T04:27:10.120Z,67.03
2019-01-14T04:29:41.000Z,65.46
2019-01-14T04:32:11.940Z,66.55
2019-01-14T04:34:42.936Z,65.83
2019-01-14T04:37:21.484Z,66.13
2019-01-14T04:39:49.159Z,65.04
2019-01-14T04:42:22.227Z,65.25
2019-01-14T04:48:00.232Z,63.21
2019-01-14T04:50:31.250Z,63.04
2019-01-14T04:53:02.374Z,62.83
2019-01-14T04:55:33.840Z,63.29
2019-01-14T04:58:05.190Z,63.54
2019-01-14T05:00:36.088Z,64.30
2019-01-14T05:03:07.188Z,64.86
2019-01-14T05:05:40.173Z,65.88
2019-01-14T05:08:11.063Z,67.72
2019-01-14T05:10:45.015Z,68.88
2019-01-14T05:13:16.214Z,69.28
2019-01-14T05:15:47.279Z,69.75
2019-01-14T05:18:18.499Z,69.12
2019-01-14T05:20:49.828Z,69.57
2019-01-14T05:23:20.951Z,71.35
2019-01-14T05:25:51.816Z,71.54
2019-01-14T05:28:22.982Z,72.46
2019-01-14T05:30:54.023Z,74.25
2019-01-14T05:33:25.141Z,76.74
2019-01-14T05:35:56.148Z,78.49
2019-01-14T05:38:27.007Z,79.12
2019-01-14T05:40:57.783Z,78.81
2019-01-14T05:43:31.686Z,76.31
2019-01-14T05:46:02.381Z,74.35
2019-01-14T05:48:33.252Z,74.16
2019-01-14T05:51:04.068Z,71.88
2019-01-14T05:53:34.801Z,71.88
2019-01-14T05:56:05.741Z,66.43
2019-01-14T05:58:36.561Z,64.37
2019-01-14T06:01:07.373Z,63.25
2019-01-14T06:03:40.199Z,62.33
2019-01-14T06:06:11.031Z,61.31
2019-01-14T06:08:41.871Z,61.83
2019-01-14T06:11:12.709Z,61.54
2019-01-14T06:13:43.553Z,60.71
2019-01-14T06:16:14.478Z,60.52
2019-01-14T06:18:45.257Z,61.35
2019-01-14T06:21:16.199Z,61.87
2019-01-14T06:23:46.982Z,62.73
2019-01-14T06:26:17.799Z,62.49
2019-01-14T06:29:11.735Z,62.63
2019-01-14T06:31:42.591Z,61.99
2019-01-14T06:34:13.355Z,62.06
2019-01-14T06:36:44.136Z,62.33
2019-01-14T06:39:14.987Z,62.44
2019-01-14T06:41:45.819Z,62.22
2019-01-14T06:44:16.599Z,62.81
2019-01-14T06:46:47.355Z,63.25
2019-01-14T06:49:18.339Z,62.69
2019-01-14T06:51:49.107Z,62.70
2019-01-14T06:54:19.861Z,63.28
2019-01-14T06:56:50.665Z,63.31
2019-01-14T06:59:21.476Z,62.88
2019-01-14T07:01:52.231Z,63.73
2019-01-14T07:04:22.989Z,63.57
2019-01-14T07:06:53.715Z,63.12
2019-01-14T07:09:24.543Z,62.82
2019-01-14T07:11:55.363Z,62.49
2019-01-14T07:14:26.151Z,63.46
2019-01-14T07:16:56.907Z,63.60
2019-01-14T07:19:27.785Z,63.57
2019-01-14T07:21:58.597Z,64.42
2019-01-14T07:24:29.449Z,64.62
2019-01-14T07:27:00.208Z,64.69
2019-01-14T07:29:31.006Z,65.04
2019-01-14T07:32:01.749Z,64.81
2019-01-14T07:34:32.563Z,64.79
2019-01-14T07:37:03.597Z,64.79
2019-01-14T07:39:34.373Z,65.56
2019-01-14T07:42:05.206Z,65.61
2019-01-14T07:44:36.002Z,65.90
2019-01-14T07:47:06.892Z,66.17
2019-01-14T07:49:37.668Z,66.42
2019-01-14T07:52:08.381Z,66.25
2019-01-14T07:54:39.191Z,66.24
2019-01-14T07:57:09.939Z,66.12
2019-01-14T07:59:40.794Z,66.07
2019-01-14T08:02:11.610Z,65.77
2019-01-14T08:04:42.446Z,65.00
2019-01-14T08:07:13.305Z,65.54
2019-01-14T08:09:44.098Z,64.06
2019-01-14T08:12:14.885Z,64.41
2019-01-14T08:14:45.666Z,63.72
2019-01-14T08:17:16.418Z,63.62
2019-01-14T08:19:47.234Z,62.46
2019-01-14T08:22:18.077Z,62.65
2019-01-14T08:24:48.846Z,62.51
2019-01-14T08:27:19.607Z,62.74
2019-01-14T08:29:50.350Z,62.21
2019-01-14T08:32:21.170Z,61.66
2019-01-14T08:34:51.966Z,61.32
2019-01-14T08:37:22.717Z,61.26
2019-01-14T08:39:53.517Z,62.12
2019-01-14T08:42:24.457Z,63.02
2019-01-14T08:44:55.518Z,62.36
2019-01-14T08:47:26.306Z,62.90
2019-01-14T08:49:57.120Z,63.30
2019-01-14T08:52:27.940Z,62.92
2019-01-14T08:54:58.714Z,62.96
2019-01-14T08:57:29.485Z,63.32
2019-01-14T09:00:00.239Z,63.63
2019-01-14T09:02:31.050Z,64.60
2019-01-14T09:05:01.819Z,64.44
2019-01-14T09:07:32.576Z,63.73
2019-01-14T09:10:03.622Z,63.24
2019-01-14T09:12:36.794Z,63.50
2019-01-14T09:15:12.778Z,64.19
2019-01-14T09:17:43.766Z,62.89
2019-01-14T09:20:22.080Z,63.60
2019-01-14T09:22:56.093Z,63.04
2019-01-14T09:25:30.284Z,63.32
2019-01-14T09:28:04.387Z,61.99
2019-01-14T09:30:37.718Z,62.22
2019-01-14T09:33:08.608Z,62.31
2019-01-14T09:35:42.436Z,61.40
2019-01-14T09:38:13.351Z,61.37
2019-01-14T09:40:45.943Z,60.77
2019-01-14T09:43:16.761Z,61.34
2019-01-14T09:45:47.584Z,61.52
2019-01-14T09:48:18.533Z,61.89
2019-01-14T09:50:49.349Z,61.82
2019-01-14T09:53:20.205Z,62.11
2019-01-14T09:55:51.121Z,62.09
2019-01-14T09:58:21.945Z,62.11
2019-01-14T10:00:55.253Z,62.24
2019-01-14T10:03:26.140Z,62.28
2019-01-14T10:05:56.938Z,62.33
2019-01-14T10:08:27.673Z,62.40
2019-01-14T10:10:58.474Z,61.96
2019-01-14T10:13:34.503Z,60.94
2019-01-14T10:16:05.340Z,61.30
2019-01-14T10:18:36.378Z,61.51
2019-01-14T10:21:07.170Z,59.68
2019-01-14T10:23:37.984Z,60.00
2019-01-14T10:26:09.589Z,59.69
2019-01-14T10:28:44.529Z,58.20
2019-01-14T10:31:19.925Z,59.81
2019-01-14T10:33:50.481Z,58.09
2019-01-14T10:36:21.217Z,56.80
2019-01-14T10:38:52.101Z,56.63
2019-01-14T10:41:22.989Z,56.75
2019-01-14T10:43:53.749Z,56.38
2019-01-14T10:46:30.602Z,56.81
2019-01-14T10:49:06.853Z,56.78
2019-01-14T10:51:35.715Z,54.58
2019-01-14T10:54:18.026Z,55.45
2019-01-14T10:56:52.007Z,54.82
2019-01-14T10:59:22.785Z,55.69
2019-01-14T11:01:56.213Z,51.91
2019-01-14T11:04:28.856Z,54.02
2019-01-14T11:06:59.615Z,53.92
2019-01-14T11:09:30.421Z,53.69
2019-01-14T11:12:01.188Z,54.06
2019-01-14T11:14:39.403Z,51.19
2019-01-14T11:17:10.276Z,50.56
2019-01-14T11:19:42.377Z,51.35
2019-01-14T11:22:13.289Z,51.71
2019-01-14T11:24:50.523Z,51.58
2019-01-14T11:27:23.762Z,51.68
2019-01-14T11:29:56.081Z,49.34
2019-01-14T11:32:26.876Z,49.17
2019-01-14T11:34:57.823Z,49.60
2019-01-14T11:37:28.682Z,50.69
2019-01-14T11:39:59.543Z,49.62
2019-01-14T11:42:30.677Z,49.93
2019-01-14T11:45:01.530Z,50.50
2019-01-14T11:47:32.501Z,50.72
2019-01-14T11:50:03.449Z,49.28
2019-01-14T11:52:38.865Z,49.13
2019-01-14T11:55:19.920Z,50.37
2019-01-14T11:57:52.057Z,50.00
2019-01-14T12:00:27.410Z,48.22
2019-01-14T12:03:00.089Z,48.48
2019-01-14T12:05:31.060Z,46.42
2019-01-14T12:08:01.865Z,46.10
2019-01-14T12:10:32.863Z,47.41
2019-01-14T12:13:03.822Z,46.58
2019-01-14T12:15:36.968Z,47.18
2019-01-14T12:18:08.041Z,46.67
2019-01-14T12:20:39.015Z,46.34
2019-01-14T12:23:09.954Z,46.67
2019-01-14T12:25:40.866Z,46.47
2019-01-14T12:28:17.548Z,46.65
2019-01-14T12:30:48.493Z,46.56
2019-01-14T12:33:19.319Z,46.42
2019-01-14T12:35:51.769Z,45.89
2019-01-14T12:38:22.614Z,46.18
2019-01-14T12:40:53.454Z,44.93
2019-01-14T12:43:24.282Z,45.68
2019-01-14T12:45:55.180Z,45.27
2019-01-14T12:48:26.020Z,45.11
2019-01-14T12:50:56.895Z,43.76
2019-01-14T12:53:27.809Z,43.35
2019-01-14T12:55:58.772Z,42.78
2019-01-14T12:58:29.595Z,42.91
2019-01-14T13:01:00.404Z,42.78
2019-01-14T13:03:31.276Z,44.00
2019-01-14T13:06:02.200Z,44.89
2019-01-14T13:08:33.082Z,44.76
2019-01-14T13:11:04.004Z,44.98
2019-01-14T13:13:34.840Z,46.12
2019-01-14T13:18:48.377Z,48.55
2019-01-14T13:21:22.202Z,51.53
2019-01-14T13:23:53.048Z,55.12
2019-01-14T13:26:23.963Z,56.56
2019-01-14T13:28:54.789Z,57.21
2019-01-14T13:31:25.734Z,57.68
2019-01-14T13:33:56.516Z,57.29
2019-01-14T13:36:27.328Z,57.02
2019-01-14T13:38:58.229Z,56.14
2019-01-14T13:41:29.020Z,53.63
2019-01-14T13:43:59.904Z,53.88
2019-01-14T13:46:30.762Z,51.37
2019-01-14T13:49:01.591Z,50.74
2019-01-14T13:51:32.363Z,50.04
2019-01-14T13:54:03.184Z,50.08
2019-01-14T13:56:33.962Z,50.94
2019-01-14T13:59:04.932Z,51.43
2019-01-14T14:01:35.724Z,52.15
2019-01-14T14:04:06.980Z,52.92
2019-01-14T14:06:44.097Z,53.39
2019-01-14T14:09:26.443Z,53.57
2019-01-14T14:12:15.826Z,53.74
2019-01-14T14:15:05.494Z,53.64
2019-01-14T14:17:40.284Z,54.54
2019-01-14T14:20:38.959Z,54.19
2019-01-14T14:22:57.402Z,55.50
2019-01-14T14:25:28.757Z,73.38
2019-01-14T14:28:00.472Z,79.74
2019-01-14T14:30:51.113Z,85.26
2019-01-14T14:33:26.411Z,87.60
2019-01-14T14:35:57.483Z,89.06
2019-01-14T14:38:28.713Z,89.53
2019-01-14T14:41:00.112Z,88.19
2019-01-14T14:43:34.233Z,85.71
2019-01-14T14:46:05.478Z,82.55
2019-01-14T14:48:37.946Z,76.08
2019-01-14T14:51:08.843Z,73.68
2019-01-14T14:53:39.795Z,68.84
2019-01-14T14:56:10.855Z,63.06
2019-01-14T14:58:41.947Z,63.29
2019-01-14T15:01:13.041Z,62.38
2019-01-14T15:03:43.966Z,66.96
2019-01-14T15:06:14.892Z,74.45
2019-01-14T15:08:45.801Z,78.53
2019-01-14T15:11:16.827Z,79.67
2019-01-14T15:13:47.651Z,79.47
2019-01-14T15:16:20.995Z,79.48
2019-01-14T15:18:51.111Z,78.00
2019-01-14T15:21:22.081Z,77.09
2019-01-14T15:23:52.876Z,76.54
2019-01-14T15:26:23.643Z,75.21
2019-01-14T15:28:54.632Z,74.86
2019-01-14T15:31:25.445Z,73.96
2019-01-14T15:33:56.271Z,73.03
2019-01-14T15:36:27.119Z,72.65
2019-01-14T15:38:58.087Z,72.08
2019-01-14T15:41:29.076Z,71.31
2019-01-14T15:44:02.171Z,71.91
2019-01-14T15:46:33.131Z,71.83
2019-01-14T15:49:03.871Z,71.09
2019-01-14T15:51:34.723Z,71.18
2019-01-14T15:54:05.619Z,71.00
2019-01-14T15:56:36.495Z,70.64
2019-01-14T15:59:09.202Z,69.69
2019-01-14T16:01:40.327Z,69.14
2019-01-14T16:04:11.242Z,69.21
2019-01-14T16:06:41.998Z,69.02
2019-01-14T16:09:12.784Z,68.74
2019-01-14T16:11:43.533Z,70.77
2019-01-14T16:14:17.245Z,73.41
2019-01-14T16:16:49.086Z,72.79
2019-01-14T16:19:21.550Z,73.03
2019-01-14T16:21:52.352Z,72.44
2019-01-14T16:24:25.658Z,70.48
2019-01-14T16:26:56.470Z,70.87
2019-01-14T16:29:27.481Z,69.20
2019-01-14T16:31:58.459Z,68.06
2019-01-14T16:34:29.250Z,67.33
2019-01-14T16:37:02.862Z,67.31
2019-01-14T16:39:35.904Z,66.25
2019-01-14T16:42:09.974Z,66.43
2019-01-14T16:44:40.815Z,64.61
2019-01-14T16:47:11.721Z,62.86
2019-01-14T16:49:42.685Z,63.51
2019-01-14T16:52:13.703Z,62.92
2019-01-14T16:54:44.678Z,62.73
2019-01-14T16:57:15.546Z,63.00
2019-01-14T16:59:46.422Z,62.95
2019-01-14T17:02:19.232Z,62.11
2019-01-14T17:04:49.978Z,63.26
2019-01-14T17:07:23.694Z,62.04
2019-01-14T17:09:54.589Z,61.71
2019-01-14T17:12:25.825Z,62.25
2019-01-14T17:14:56.843Z,62.48
2019-01-14T17:17:27.870Z,62.30
2019-01-14T17:19:58.658Z,62.72
2019-01-14T17:22:29.601Z,62.55
2019-01-14T17:25:00.671Z,62.38
2019-01-14T17:27:31.629Z,63.35
2019-01-14T17:30:02.568Z,62.43
2019-01-14T17:32:36.414Z,62.71
2019-01-14T17:35:07.982Z,62.95
2019-01-14T17:37:39.270Z,62.29
2019-01-14T17:40:14.114Z,64.05
2019-01-14T17:42:45.320Z,63.03
2019-01-14T17:45:24.664Z,63.72
2019-01-14T17:47:58.659Z,64.75
2019-01-14T17:50:34.378Z,64.52
2019-01-14T18:07:29.981Z,66.44
2019-01-14T18:10:02.645Z,64.84
2019-01-14T18:12:35.540Z,65.44
2019-01-14T18:15:17.897Z,65.77
2019-01-14T18:17:56.626Z,66.37
2019-01-14T18:20:30.858Z,66.43
2019-01-14T18:23:12.380Z,66.04
2019-01-14T18:25:39.863Z,66.63
2019-01-14T18:28:13.483Z,66.15
2019-01-14T18:31:31.742Z,65.75
2019-01-14T18:54:16.341Z,66.45
2019-01-14T18:56:49.422Z,66.41
2019-01-14T18:59:24.274Z,66.46
2019-01-14T19:02:04.717Z,66.58
2019-01-14T19:04:37.660Z,66.53
2019-01-14T19:07:11.099Z,67.12
2019-01-14T19:09:42.183Z,66.75
2019-01-14T19:12:16.858Z,66.48
2019-01-14T19:14:47.573Z,65.99
2019-01-14T19:17:24.685Z,66.16
2019-01-14T19:19:59.293Z,66.24
2019-01-14T19:22:31.709Z,66.62
2019-01-14T19:25:02.788Z,66.62
2019-01-14T19:27:47.977Z,67.04
2019-01-14T19:30:27.544Z,66.95
2019-01-14T19:32:59.037Z,67.44
2019-01-14T19:35:45.418Z,68.11
2019-01-14T19:38:39.349Z,68.59
2019-01-14T19:40:51.910Z,67.75
2019-01-14T19:43:33.316Z,68.81
2019-01-14T19:46:09.171Z,68.38
2019-01-14T19:48:41.629Z,68.55
2019-01-14T19:51:16.448Z,69.30
2019-01-14T19:54:09.989Z,69.08
2019-01-14T19:56:30.023Z,69.11
2019-01-14T19:59:53.236Z,69.22
2019-01-14T20:02:36.892Z,69.49
2019-01-14T20:05:00.437Z,69.85
2019-01-14T20:07:31.658Z,70.35
2019-01-14T20:10:05.022Z,70.33
2019-01-14T20:12:35.888Z,70.31
2019-01-14T20:15:08.728Z,70.40
2019-01-14T20:17:42.577Z,71.25
2019-01-14T20:20:17.013Z,71.68
2019-01-14T20:22:50.783Z,71.64
2019-01-14T20:25:21.946Z,71.47
2019-01-14T20:27:55.067Z,71.93
2019-01-14T20:30:36.076Z,71.57
2019-01-14T20:33:08.121Z,71.71
2019-01-14T20:35:39.017Z,71.21
2019-01-14T20:38:09.864Z,71.34
2019-01-14T20:40:41.972Z,70.86
2019-01-14T20:43:12.845Z,70.57
2019-01-14T21:06:37.613Z,70.95
2019-01-14T21:09:09.985Z,71.34
2019-01-14T21:11:43.606Z,71.78
2019-01-14T21:14:21.152Z,71.91
2019-01-14T21:16:58.541Z,72.30
2019-01-14T21:19:30.854Z,72.38
2019-01-14T21:22:07.012Z,72.33
2019-01-14T21:24:41.180Z,72.67
2019-01-14T21:27:18.975Z,73.17
2019-01-14T21:29:54.336Z,73.66
2019-01-14T21:32:28.314Z,73.82
2019-01-14T21:35:10.553Z,73.47
2019-01-14T21:37:51.205Z,73.22
2019-01-14T21:40:48.106Z,73.35
2019-01-14T21:46:04.066Z,73.71
2019-01-14T21:47:39.608Z,73.41
2019-01-14T21:52:10.954Z,74.42
2019-01-14T21:54:42.030Z,74.63
2019-01-14T21:57:15.984Z,74.68
2019-01-14T21:59:53.822Z,75.11
2019-01-14T22:02:30.607Z,74.72
2019-01-14T22:05:01.573Z,74.42
2019-01-14T22:07:39.541Z,74.24
2019-01-14T22:10:23.625Z,74.58
2019-01-14T22:12:54.370Z,74.43
2019-01-14T22:15:25.551Z,74.71
2019-01-14T22:17:59.540Z,74.38
2019-01-14T22:20:39.117Z,74.45
2019-01-14T22:23:11.876Z,74.87
2019-01-14T22:25:43.008Z,74.63
2019-01-14T22:28:15.658Z,74.82
2019-01-14T22:30:57.931Z,74.83
2019-01-14T22:33:30.866Z,74.71
2019-01-14T22:36:04.244Z,75.44
2019-01-14T22:38:35.339Z,74.92
2019-01-14T22:41:07.279Z,74.85
2019-01-14T22:43:43.115Z,74.89
2019-01-14T22:46:13.752Z,74.96
2019-01-14T22:48:53.661Z,74.96
2019-01-14T22:51:25.953Z,74.85
2019-01-14T22:54:02.232Z,75.02
2019-01-14T22:56:32.941Z,75.49
2019-01-14T22:59:16.244Z,75.63
2019-01-14T23:01:53.887Z,75.46
2019-01-14T23:04:30.215Z,75.70
2019-01-14T23:07:10.419Z,75.90
2019-01-14T23:09:47.593Z,76.67
2019-01-14T23:12:27.239Z,76.59
2019-01-14T23:14:59.203Z,77.09
2019-01-14T23:17:40.969Z,77.02
2019-01-14T23:20:13.852Z,77.19
2019-01-14T23:22:45.003Z,77.31
2019-01-14T23:25:18.363Z,77.50
2019-01-14T23:27:50.959Z,76.86
2019-01-14T23:30:25.635Z,77.52
2019-01-14T23:32:59.515Z,77.87
2019-01-14T23:35:34.193Z,77.50
2019-01-14T23:38:08.099Z,77.35
2019-01-14T23:40:38.887Z,77.35
2019-01-14T23:43:21.013Z,77.44
2019-01-14T23:45:52.802Z,77.08
2019-01-14T23:48:25.578Z,77.05
2019-01-14T23:50:58.827Z,77.83
2019-01-14T23:53:31.664Z,77.53
2019-01-14T23:56:03.131Z,77.30
2019-01-14T23:58:37.170Z,77.91
